createdAt,value
2023-09-25T00:00:53.259Z,5.50
2023-09-25T00:03:22.047Z,4.75
2023-09-25T00:05:49.905Z,4.82
2023-09-25T00:08:17.226Z,5.03
2023-09-25T00:10:44.525Z,4.95
2023-09-25T00:13:14.164Z,6.07
2023-09-25T00:15:45.036Z,5.35
2023-09-25T00:18:13.698Z,5.13
2023-09-25T00:20:42.439Z,4.68
2023-09-25T00:23:09.769Z,5.05
2023-09-25T00:25:37.072Z,6.18
2023-09-25T00:28:04.842Z,4.97
2023-09-25T00:30:32.337Z,4.35
2023-09-25T00:32:59.713Z,4.55
2023-09-25T00:35:27.073Z,4.70
2023-09-25T00:37:55.732Z,5.13
2023-09-25T00:40:23.053Z,4.55
2023-09-25T00:42:51.441Z,4.65
2023-09-25T00:45:18.818Z,5.03
2023-09-25T00:47:46.366Z,4.78
2023-09-25T00:50:14.076Z,4.70
2023-09-25T00:52:43.955Z,4.70
2023-09-25T00:55:14.543Z,4.97
2023-09-25T00:57:42.969Z,4.45
2023-09-25T01:00:11.360Z,4.55
2023-09-25T01:02:38.784Z,4.63
2023-09-25T01:05:07.852Z,5.30
2023-09-25T01:07:35.382Z,4.85
2023-09-25T01:10:08.248Z,5.88
2023-09-25T01:12:37.146Z,5.45
2023-09-25T01:15:05.226Z,5.20
2023-09-25T01:17:32.635Z,4.70
2023-09-25T01:20:01.911Z,5.88
2023-09-25T01:22:30.630Z,5.38
2023-09-25T01:24:58.026Z,5.18
2023-09-25T01:27:25.317Z,5.07
2023-09-25T01:29:52.614Z,5.40
2023-09-25T01:32:19.926Z,5.00
2023-09-25T01:34:47.309Z,4.97
2023-09-25T01:37:14.612Z,5.35
2023-09-25T01:39:43.324Z,5.57
2023-09-25T01:42:10.685Z,5.25
2023-09-25T01:44:38.081Z,4.95
2023-09-25T01:47:05.398Z,5.93
2023-09-25T01:49:32.782Z,5.18
2023-09-25T01:52:00.134Z,4.82
2023-09-25T01:54:27.494Z,5.10
2023-09-25T01:56:56.134Z,4.88
2023-09-25T01:59:23.354Z,5.55
2023-09-25T02:01:50.574Z,4.95
2023-09-25T02:04:18.104Z,5.00
2023-09-25T02:06:45.570Z,5.97
2023-09-25T02:09:12.937Z,4.20
2023-09-25T02:11:40.352Z,6.03
2023-09-25T02:14:09.016Z,6.00
2023-09-25T02:16:36.480Z,5.90
2023-09-25T02:19:03.857Z,6.15
2023-09-25T02:21:31.237Z,6.47
2023-09-25T02:23:58.536Z,5.95
2023-09-25T02:26:25.903Z,6.32
2023-09-25T02:28:53.122Z,5.82
2023-09-25T02:31:21.847Z,5.03
2023-09-25T02:33:49.229Z,5.78
2023-09-25T02:36:16.508Z,5.88
2023-09-25T02:38:43.779Z,4.70
2023-09-25T02:41:11.039Z,5.32
2023-09-25T02:43:38.303Z,5.75
2023-09-25T02:46:06.496Z,4.93
2023-09-25T02:51:02.204Z,5.95
2023-09-25T02:53:29.502Z,5.35
2023-09-25T02:55:56.815Z,8.07
2023-09-25T02:58:24.066Z,6.80
2023-09-25T03:00:51.292Z,5.10
2023-09-25T03:03:18.878Z,6.05
2023-09-25T03:05:47.837Z,6.28
2023-09-25T03:08:15.072Z,6.18
2023-09-25T03:10:42.398Z,5.93
2023-09-25T03:13:09.638Z,7.38
2023-09-25T03:17:37.343Z,5.47
2023-09-25T03:20:05.883Z,5.70
2023-09-25T03:22:35.842Z,5.20
2023-09-25T03:25:03.355Z,5.68
2023-09-25T03:27:30.659Z,5.25
2023-09-25T03:29:57.965Z,5.20
2023-09-25T03:32:25.284Z,5.85
2023-09-25T03:34:52.600Z,5.13
2023-09-25T03:37:21.514Z,5.03
2023-09-25T03:39:50.414Z,5.45
2023-09-25T03:42:17.692Z,6.10
2023-09-25T03:44:45.009Z,5.72
2023-09-25T03:47:12.345Z,5.50
2023-09-25T03:49:39.632Z,5.80
2023-09-25T03:52:06.922Z,6.47
2023-09-25T03:54:34.227Z,5.65
2023-09-25T03:57:02.991Z,8.20
2023-09-25T03:59:30.318Z,6.10
2023-09-25T04:01:57.988Z,8.48
2023-09-25T04:04:25.317Z,7.07
2023-09-25T04:06:52.670Z,6.22
2023-09-25T04:09:20.039Z,5.15
2023-09-25T04:11:47.428Z,5.25
2023-09-25T04:14:16.239Z,5.47
2023-09-25T04:16:43.520Z,6.13
2023-09-25T04:19:10.929Z,5.60
2023-09-25T04:21:38.229Z,6.45
2023-09-25T04:24:06.073Z,5.55
2023-09-25T04:26:33.324Z,5.70
2023-09-25T04:29:00.616Z,5.03
2023-09-25T04:31:30.849Z,5.93
2023-09-25T04:34:00.199Z,5.82
2023-09-25T04:36:27.589Z,5.82
2023-09-25T04:38:54.910Z,5.97
2023-09-25T04:41:22.116Z,6.38
2023-09-25T04:43:49.338Z,5.22
2023-09-25T04:46:16.675Z,5.28
2023-09-25T04:48:45.420Z,5.40
2023-09-25T04:51:12.770Z,5.25
2023-09-25T04:53:40.033Z,6.25
2023-09-25T04:56:07.267Z,5.85
2023-09-25T04:58:34.611Z,6.03
2023-09-25T05:01:02.133Z,5.65
2023-09-25T05:03:29.506Z,5.07
2023-09-25T05:05:58.243Z,6.47
2023-09-25T05:08:25.565Z,6.63
2023-09-25T05:10:52.801Z,6.70
2023-09-25T05:13:20.076Z,5.72
2023-09-25T05:15:47.516Z,6.43
2023-09-25T05:18:14.889Z,8.65
2023-09-25T05:20:42.239Z,8.68
2023-09-25T05:23:10.862Z,8.32
2023-09-25T05:25:38.096Z,7.13
2023-09-25T05:28:05.589Z,6.85
2023-09-25T05:30:33.076Z,6.32
2023-09-25T05:33:00.352Z,6.82
2023-09-25T05:35:27.584Z,6.93
2023-09-25T05:37:54.817Z,6.78
2023-09-25T05:40:25.615Z,6.38
2023-09-25T05:42:52.948Z,6.15
2023-09-25T05:45:20.748Z,6.97
2023-09-25T05:47:48.233Z,6.90
2023-09-25T05:50:15.731Z,6.53
2023-09-25T05:52:43.123Z,6.55
2023-09-25T05:55:10.749Z,7.25
2023-09-25T05:57:40.489Z,7.45
2023-09-25T06:00:08.711Z,6.82
2023-09-25T06:05:05.580Z,6.97
2023-09-25T06:10:00.076Z,6.85
2023-09-25T06:12:27.797Z,7.30
2023-09-25T06:14:56.723Z,7.63
2023-09-25T06:17:24.190Z,7.00
2023-09-25T06:19:51.432Z,6.95
2023-09-25T06:22:18.748Z,7.20
2023-09-25T06:24:46.036Z,7.90
2023-09-25T06:27:13.341Z,7.43
2023-09-25T06:29:40.615Z,6.78
2023-09-25T06:32:09.257Z,7.38
2023-09-25T06:34:36.652Z,7.82
2023-09-25T06:37:03.978Z,8.02
2023-09-25T06:39:31.247Z,7.00
2023-09-25T06:41:58.516Z,6.85
2023-09-25T06:44:25.984Z,7.00
2023-09-25T06:46:53.246Z,6.07
2023-09-25T06:49:21.916Z,6.03
2023-09-25T06:51:49.160Z,6.05
2023-09-25T06:54:16.445Z,7.28
2023-09-25T06:56:43.709Z,5.38
2023-09-25T06:59:11.008Z,7.32
2023-09-25T07:01:38.383Z,5.93
2023-09-25T07:04:06.137Z,6.32
2023-09-25T07:06:34.944Z,5.10
2023-09-25T07:09:02.706Z,5.90
2023-09-25T07:11:30.240Z,5.97
2023-09-25T07:13:57.530Z,7.65
2023-09-25T07:16:25.285Z,5.78
2023-09-25T07:18:52.784Z,5.30
2023-09-25T07:21:20.293Z,5.22
2023-09-25T07:23:48.909Z,5.53
2023-09-25T07:26:16.234Z,5.10
2023-09-25T07:28:43.746Z,5.78
2023-09-25T07:31:11.014Z,6.38
2023-09-25T07:33:39.322Z,5.45
2023-09-25T07:36:07.410Z,5.80
2023-09-25T07:38:35.160Z,6.20
2023-09-25T07:41:03.852Z,5.43
2023-09-25T07:46:02.545Z,5.25
2023-09-25T07:48:30.298Z,5.13
2023-09-25T07:50:57.869Z,5.65
2023-09-25T07:53:25.330Z,4.63
2023-09-25T07:55:52.907Z,4.53
2023-09-25T07:58:21.509Z,4.72
2023-09-25T08:00:49.650Z,5.32
2023-09-25T08:03:18.864Z,5.20
2023-09-25T08:05:46.375Z,4.60
2023-09-25T08:08:13.824Z,4.00
2023-09-25T08:10:41.285Z,4.10
2023-09-25T08:13:08.840Z,4.45
2023-09-25T08:15:38.826Z,3.97
2023-09-25T08:18:06.302Z,4.15
2023-09-25T08:20:33.678Z,3.92
2023-09-25T08:23:00.879Z,4.50
2023-09-25T08:25:28.090Z,5.00
2023-09-25T08:27:55.372Z,3.30
2023-09-25T08:30:22.745Z,5.05
2023-09-25T08:32:51.421Z,3.63
2023-09-25T08:35:18.890Z,3.83
2023-09-25T08:37:46.318Z,3.42
2023-09-25T08:40:15.803Z,3.88
2023-09-25T08:42:44.142Z,4.03
2023-09-25T08:45:11.537Z,4.18
2023-09-25T08:47:41.053Z,3.83
2023-09-25T08:50:10.633Z,3.88
2023-09-25T08:52:38.052Z,4.82
2023-09-25T08:55:06.196Z,4.63
2023-09-25T08:57:35.013Z,4.13
2023-09-25T09:00:03.937Z,4.25
2023-09-25T09:02:31.715Z,4.28
2023-09-25T09:07:30.032Z,4.20
2023-09-25T09:09:58.672Z,4.75
2023-09-25T09:12:26.238Z,5.45
2023-09-25T09:14:53.507Z,4.22
2023-09-25T09:17:20.777Z,4.25
2023-09-25T09:19:52.097Z,5.47
2023-09-25T09:22:20.303Z,4.32
2023-09-25T09:24:50.239Z,4.38
2023-09-25T09:27:17.513Z,4.00
2023-09-25T09:29:45.576Z,4.30
2023-09-25T09:32:12.849Z,4.00
2023-09-25T09:34:40.308Z,3.90
2023-09-25T09:37:08.029Z,3.67
2023-09-25T09:39:35.936Z,4.65
2023-09-25T09:42:06.123Z,3.97
2023-09-25T09:44:33.970Z,4.65
2023-09-25T09:47:04.207Z,3.72
2023-09-25T09:49:32.826Z,3.40
2023-09-25T09:52:02.165Z,3.83
2023-09-25T09:54:35.660Z,3.03
2023-09-25T09:57:04.919Z,3.20
2023-09-25T09:59:32.176Z,3.15
2023-09-25T10:02:01.685Z,3.35
2023-09-25T10:04:30.391Z,3.08
2023-09-25T10:07:01.257Z,3.40
2023-09-25T10:09:28.644Z,3.50
2023-09-25T10:11:57.093Z,3.83
2023-09-25T10:14:27.192Z,3.60
2023-09-25T10:17:05.280Z,3.42
2023-09-25T10:19:49.365Z,2.72
2023-09-25T10:22:21.531Z,2.92
2023-09-25T10:24:59.208Z,2.85
2023-09-25T10:27:26.664Z,2.70
2023-09-25T10:30:08.075Z,2.72
2023-09-25T10:32:38.472Z,2.50
2023-09-25T10:35:37.190Z,2.60
2023-09-25T10:38:29.107Z,2.53
2023-09-25T10:41:01.285Z,2.60
2023-09-25T10:43:28.734Z,2.25
2023-09-25T10:45:57.356Z,2.25
2023-09-25T10:48:27.407Z,2.30
2023-09-25T10:50:55.378Z,2.65
2023-09-25T10:53:23.152Z,2.15
2023-09-25T10:55:50.522Z,2.50
2023-09-25T10:58:17.910Z,2.63
2023-09-25T11:00:47.558Z,2.30
2023-09-25T11:03:17.468Z,2.20
2023-09-25T11:05:45.711Z,2.42
2023-09-25T11:08:12.965Z,2.20
2023-09-25T11:10:41.369Z,2.55
2023-09-25T11:13:08.708Z,2.58
2023-09-25T11:15:38.077Z,2.30
2023-09-25T11:18:08.378Z,2.60
2023-09-25T11:20:38.292Z,2.25
2023-09-25T11:23:19.062Z,2.72
2023-09-25T11:25:49.906Z,2.63
2023-09-25T11:28:18.670Z,2.67
2023-09-25T11:30:48.768Z,2.42
2023-09-25T11:33:17.486Z,2.90
2023-09-25T11:35:49.101Z,2.20
2023-09-25T11:38:18.198Z,2.35
2023-09-25T11:40:46.306Z,2.47
2023-09-25T11:43:14.103Z,2.60
2023-09-25T11:48:09.925Z,2.33
2023-09-25T11:50:37.655Z,2.42
2023-09-25T11:53:06.685Z,2.38
2023-09-25T11:55:34.348Z,2.50
2023-09-25T11:58:02.466Z,2.17
2023-09-25T12:00:29.928Z,2.03
2023-09-25T12:02:57.546Z,2.40
2023-09-25T12:07:53.333Z,2.25
2023-09-25T12:10:23.422Z,1.98
2023-09-25T12:12:51.745Z,1.90
2023-09-25T12:15:19.108Z,1.83
2023-09-25T12:17:48.146Z,1.60
2023-09-25T12:20:17.553Z,1.90
2023-09-25T12:22:46.374Z,1.60
2023-09-25T12:25:15.048Z,1.50
2023-09-25T12:27:44.689Z,1.67
2023-09-25T12:30:14.452Z,1.52
2023-09-25T12:32:42.076Z,1.60
2023-09-25T12:35:11.293Z,1.30
2023-09-25T12:37:38.869Z,1.60
2023-09-25T12:40:07.426Z,1.60
2023-09-25T12:42:51.203Z,1.50
2023-09-25T12:45:23.527Z,1.42
2023-09-25T12:47:51.772Z,1.20
2023-09-25T12:50:19.371Z,1.20
2023-09-25T12:55:13.621Z,2.30
2023-09-25T12:57:41.073Z,1.40
2023-09-25T13:02:37.836Z,1.23
2023-09-25T13:05:05.841Z,1.27
2023-09-25T13:07:34.704Z,1.17
2023-09-25T13:10:02.043Z,1.20
2023-09-25T13:12:29.374Z,1.33
2023-09-25T13:14:58.324Z,1.33
2023-09-25T13:17:25.672Z,1.20
2023-09-25T13:19:54.292Z,1.30
2023-09-25T13:22:35.746Z,1.48
2023-09-25T13:25:06.135Z,1.15
2023-09-25T13:27:33.736Z,1.17
2023-09-25T13:30:01.272Z,1.15
2023-09-25T13:32:28.867Z,1.10
2023-09-25T13:34:57.582Z,1.15
2023-09-25T13:37:24.879Z,1.20
2023-09-25T13:42:19.144Z,1.20
2023-09-25T13:47:13.806Z,1.25
2023-09-25T13:49:41.498Z,1.75
2023-09-25T13:52:10.229Z,1.08
2023-09-25T13:54:37.711Z,1.33
2023-09-25T13:57:05.303Z,1.05
2023-09-25T13:59:33.876Z,1.17
2023-09-25T14:02:01.333Z,1.17
2023-09-25T14:04:30.057Z,1.23
2023-09-25T14:06:57.383Z,1.13
2023-09-25T14:09:26.119Z,1.60
2023-09-25T14:11:53.581Z,1.30
2023-09-25T14:14:22.228Z,1.33
2023-09-25T14:16:50.690Z,1.30
2023-09-25T14:19:18.002Z,1.48
2023-09-25T14:21:45.338Z,1.70
2023-09-25T14:24:12.635Z,1.38
2023-09-25T14:26:41.276Z,1.48
2023-09-25T14:29:08.584Z,1.23
2023-09-25T14:31:35.915Z,1.48
2023-09-25T14:34:03.528Z,1.30
2023-09-25T14:36:31.764Z,1.52
2023-09-25T14:39:00.036Z,1.38
2023-09-25T14:41:27.432Z,1.67
2023-09-25T14:43:57.366Z,1.63
2023-09-25T14:46:24.799Z,1.67
2023-09-25T14:51:19.590Z,1.60
2023-09-25T14:56:14.181Z,1.33
2023-09-25T15:01:10.104Z,1.50
2023-09-25T15:03:37.527Z,1.40
2023-09-25T15:06:05.358Z,1.70
2023-09-25T15:08:34.095Z,1.75
2023-09-25T15:11:01.501Z,1.70
2023-09-25T15:13:30.048Z,1.50
2023-09-25T15:15:57.403Z,1.60
2023-09-25T15:18:26.215Z,1.73
2023-09-25T15:20:53.467Z,1.90
2023-09-25T15:23:20.759Z,1.92
2023-09-25T15:25:48.291Z,2.00
2023-09-25T15:28:15.792Z,1.85
2023-09-25T15:30:43.114Z,1.58
2023-09-25T15:33:10.439Z,1.70
2023-09-25T15:35:39.227Z,1.50
2023-09-25T15:38:06.544Z,2.38
2023-09-25T15:40:33.846Z,1.77
2023-09-25T15:43:01.219Z,1.63
2023-09-25T15:45:28.603Z,1.88
2023-09-25T15:47:56.948Z,25.75
2023-09-25T15:50:27.441Z,3.83
2023-09-25T15:52:56.594Z,3.03
2023-09-25T15:55:23.934Z,2.10
2023-09-25T15:57:51.254Z,1.95
2023-09-25T16:00:18.702Z,2.03
2023-09-25T16:02:46.136Z,1.90
2023-09-25T16:05:13.419Z,1.95
2023-09-25T16:07:40.767Z,1.95
2023-09-25T16:10:10.143Z,2.30
2023-09-25T16:12:37.478Z,2.00
2023-09-25T16:15:07.790Z,2.03
2023-09-25T16:17:35.210Z,2.58
2023-09-25T16:20:02.989Z,2.00
2023-09-25T16:22:30.243Z,2.22
2023-09-25T16:24:57.620Z,2.13
2023-09-25T16:27:27.328Z,2.28
2023-09-25T16:29:54.575Z,1.88
2023-09-25T16:32:21.828Z,2.20
2023-09-25T16:34:49.150Z,2.72
2023-09-25T16:37:16.433Z,2.35
2023-09-25T16:39:43.723Z,2.40
2023-09-25T16:42:11.024Z,2.58
2023-09-25T16:44:39.677Z,2.33
2023-09-25T16:47:07.164Z,2.30
2023-09-25T16:49:34.532Z,2.28
2023-09-25T16:52:02.062Z,2.70
2023-09-25T16:54:30.490Z,2.63
2023-09-25T16:56:57.828Z,2.55
2023-09-25T16:59:25.160Z,2.75
2023-09-25T17:01:53.960Z,3.08
2023-09-25T17:04:21.344Z,3.53
2023-09-25T17:06:48.699Z,3.08
2023-09-25T17:09:16.062Z,3.08
2023-09-25T17:11:43.376Z,7.43
2023-09-25T17:14:10.803Z,4.65
2023-09-25T17:16:38.329Z,4.75
2023-09-25T17:19:07.048Z,3.63
2023-09-25T17:21:34.431Z,3.35
2023-09-25T17:24:01.945Z,3.50
2023-09-25T17:26:29.167Z,2.92
2023-09-25T17:28:56.799Z,2.95
2023-09-25T17:33:51.644Z,3.35
2023-09-25T17:36:20.647Z,3.70
2023-09-25T17:38:49.222Z,3.78
2023-09-25T17:41:16.557Z,3.58
2023-09-25T17:43:43.827Z,3.35
2023-09-25T17:46:12.228Z,6.32
2023-09-25T17:48:39.964Z,5.28
2023-09-25T17:51:07.252Z,5.00
2023-09-25T17:53:36.178Z,5.47
2023-09-25T17:56:03.843Z,4.53
2023-09-25T17:58:32.047Z,4.13
2023-09-25T18:01:00.045Z,3.85
2023-09-25T18:03:28.690Z,4.60
2023-09-25T18:05:56.385Z,3.88
2023-09-25T18:08:23.811Z,4.22
2023-09-25T18:10:52.591Z,3.70
2023-09-25T18:13:19.964Z,4.40
2023-09-25T18:15:49.256Z,4.90
2023-09-25T18:18:16.943Z,5.60
2023-09-25T18:23:11.492Z,5.13
2023-09-25T18:25:39.412Z,6.60
2023-09-25T18:28:08.184Z,9.88
2023-09-25T18:30:36.487Z,9.75
2023-09-25T18:33:04.318Z,8.80
2023-09-25T18:35:31.744Z,8.93
2023-09-25T18:37:59.052Z,7.85
2023-09-25T18:40:27.147Z,7.78
2023-09-25T18:42:54.404Z,7.20
2023-09-25T18:45:23.039Z,6.72
2023-09-25T18:47:51.374Z,6.35
2023-09-25T18:50:18.837Z,10.55
2023-09-25T18:52:46.254Z,13.98
2023-09-25T18:55:13.832Z,11.95
2023-09-25T18:57:41.191Z,16.92
2023-09-25T19:00:09.524Z,16.73
2023-09-25T19:02:38.328Z,17.55
2023-09-25T19:05:06.562Z,17.52
2023-09-25T19:07:33.940Z,17.80
2023-09-25T19:10:03.972Z,19.77
2023-09-25T19:12:31.414Z,17.52
2023-09-25T19:14:58.752Z,13.38
2023-09-25T19:17:26.098Z,16.40
2023-09-25T19:19:54.751Z,14.38
2023-09-25T19:22:22.106Z,12.77
2023-09-25T19:24:49.499Z,12.43
2023-09-25T19:27:16.796Z,11.88
2023-09-25T19:29:44.132Z,12.57
2023-09-25T19:32:11.446Z,10.35
2023-09-25T19:34:39.227Z,10.13
2023-09-25T19:37:09.056Z,9.73
2023-09-25T19:39:36.918Z,10.23
2023-09-25T19:44:31.252Z,9.05
2023-09-25T19:46:58.593Z,8.35
2023-09-25T19:49:26.142Z,8.32
2023-09-25T19:51:53.747Z,8.27
2023-09-25T19:54:22.633Z,7.55
2023-09-25T19:56:49.923Z,7.82
2023-09-25T19:59:17.203Z,8.20
2023-09-25T20:01:44.618Z,7.68
2023-09-25T20:04:12.021Z,8.40
2023-09-25T20:06:39.519Z,8.63
2023-09-25T20:09:06.859Z,10.45
2023-09-25T20:11:35.536Z,11.25
2023-09-25T20:14:03.151Z,11.20
2023-09-25T20:16:30.875Z,10.90
2023-09-25T20:18:58.310Z,14.48
2023-09-25T20:21:27.084Z,12.43
2023-09-25T20:23:54.715Z,13.15
2023-09-25T20:26:21.905Z,11.45
2023-09-25T20:28:50.646Z,11.15
2023-09-25T20:31:18.017Z,11.48
2023-09-25T20:33:45.254Z,11.00
2023-09-25T20:36:12.615Z,9.82
2023-09-25T20:38:39.904Z,9.15
2023-09-25T20:41:07.222Z,8.63
2023-09-25T20:43:34.515Z,8.10
2023-09-25T20:46:03.336Z,7.00
2023-09-25T20:48:30.755Z,8.35
2023-09-25T20:50:58.017Z,8.02
2023-09-25T20:53:25.344Z,7.97
2023-09-25T20:55:52.617Z,7.38
2023-09-25T20:58:20.029Z,7.63
2023-09-25T21:00:47.377Z,7.75
2023-09-25T21:03:16.150Z,7.63
2023-09-25T21:05:43.530Z,7.53
2023-09-25T21:08:10.828Z,8.43
2023-09-25T21:10:38.204Z,7.28
2023-09-25T21:13:05.662Z,7.40
2023-09-25T21:15:32.949Z,8.63
2023-09-25T21:18:00.327Z,8.25
2023-09-25T21:20:29.011Z,6.75
2023-09-25T21:22:56.303Z,7.90
2023-09-25T21:25:23.687Z,7.43
2023-09-25T21:27:51.113Z,7.15
2023-09-25T21:30:18.612Z,7.15
2023-09-25T21:32:46.235Z,7.25
2023-09-25T21:35:13.649Z,8.02
2023-09-25T21:37:42.438Z,9.40
2023-09-25T21:40:10.615Z,8.35
2023-09-25T21:42:38.054Z,8.05
2023-09-25T21:45:06.544Z,8.25
2023-09-25T21:47:33.918Z,7.70
2023-09-25T21:50:01.283Z,9.13
2023-09-25T21:52:28.818Z,8.57
2023-09-25T21:54:57.494Z,10.45
2023-09-25T21:57:24.820Z,9.32
2023-09-25T21:59:52.062Z,8.88
2023-09-25T22:02:19.302Z,7.43
2023-09-25T22:04:46.619Z,8.20
2023-09-25T22:07:14.054Z,8.93
2023-09-25T22:09:41.391Z,7.32
2023-09-25T22:12:10.031Z,9.10
2023-09-25T22:14:37.288Z,7.00
2023-09-25T22:17:04.771Z,6.93
2023-09-25T22:19:32.381Z,6.93
2023-09-25T22:21:59.700Z,6.38
2023-09-25T22:24:27.051Z,7.85
2023-09-25T22:26:54.376Z,7.72
2023-09-25T22:29:23.058Z,7.32
2023-09-25T22:31:50.325Z,8.15
2023-09-25T22:34:17.765Z,6.20
2023-09-25T22:36:45.033Z,6.65
2023-09-25T22:39:12.336Z,6.72
2023-09-25T22:41:39.704Z,6.95
2023-09-25T22:44:06.977Z,7.10
2023-09-25T22:46:35.836Z,7.50
2023-09-25T22:49:03.312Z,6.85
2023-09-25T22:51:30.716Z,7.43
2023-09-25T22:53:57.950Z,7.88
2023-09-25T22:56:25.215Z,8.07
2023-09-25T22:58:52.506Z,6.65
2023-09-25T23:01:19.875Z,6.88
2023-09-25T23:03:48.820Z,7.65
2023-09-25T23:06:16.503Z,7.20
2023-09-25T23:08:43.780Z,7.88
2023-09-25T23:11:11.109Z,7.75
2023-09-25T23:13:38.392Z,8.02
2023-09-25T23:16:07.098Z,6.47
2023-09-25T23:18:34.604Z,6.15
2023-09-25T23:21:03.350Z,7.30
2023-09-25T23:23:30.600Z,7.00
2023-09-25T23:25:57.849Z,7.43
2023-09-25T23:28:25.129Z,7.13
2023-09-25T23:30:52.623Z,8.23
2023-09-25T23:33:19.950Z,6.53
2023-09-25T23:35:47.256Z,8.43
2023-09-25T23:38:15.958Z,6.90
2023-09-25T23:40:43.257Z,6.35
2023-09-25T23:43:10.754Z,6.50
2023-09-25T23:45:38.123Z,9.70
2023-09-25T23:48:06.593Z,7.70
2023-09-25T23:50:33.893Z,8.45
2023-09-25T23:53:01.175Z,7.13
2023-09-25T23:55:29.921Z,7.40
2023-09-25T23:57:57.270Z,7.43
